sensor_id;sensor_type;location;lat;lon;timestamp;pressure;altitude;pressure_sealevel;temperature;humidity
78615;BME280;67937;52.488;20.952;2023-04-24T00:00:48;99764.32;;;10.47;57.37
78615;BME280;67937;52.488;20.952;2023-04-24T00:03:25;99759.30;;;10.31;58.24
78615;BME280;67937;52.488;20.952;2023-04-24T00:05:54;99764.31;;;10.20;58.11
78615;BME280;67937;52.488;20.952;2023-04-24T00:08:22;99760.78;;;10.16;58.88
78615;BME280;67937;52.488;20.952;2023-04-24T00:10:51;99765.47;;;10.17;58.28
78615;BME280;67937;52.488;20.952;2023-04-24T00:13:19;99759.34;;;10.21;58.28
78615;BME280;67937;52.488;20.952;2023-04-24T00:15:47;99756.31;;;10.23;58.17
78615;BME280;67937;52.488;20.952;2023-04-24T00:18:15;99751.50;;;10.23;58.14
78615;BME280;67937;52.488;20.952;2023-04-24T00:20:44;99756.72;;;10.26;58.15
78615;BME280;67937;52.488;20.952;2023-04-24T00:23:13;99755.29;;;10.25;58.19
78615;BME280;67937;52.488;20.952;2023-04-24T00:25:41;99754.13;;;10.20;58.35
78615;BME280;67937;52.488;20.952;2023-04-24T00:28:09;99752.63;;;10.15;58.65
78615;BME280;67937;52.488;20.952;2023-04-24T00:30:37;99751.11;;;10.10;58.72
78615;BME280;67937;52.488;20.952;2023-04-24T00:33:05;99754.96;;;10.04;58.69
78615;BME280;67937;52.488;20.952;2023-04-24T00:35:33;99750.92;;;10.00;58.95
78615;BME280;67937;52.488;20.952;2023-04-24T00:38:01;99746.77;;;9.91;59.16
78615;BME280;67937;52.488;20.952;2023-04-24T00:40:29;99742.51;;;9.77;59.44
78615;BME280;67937;52.488;20.952;2023-04-24T00:42:57;99738.84;;;9.74;59.53
78615;BME280;67937;52.488;20.952;2023-04-24T00:45:25;99738.71;;;9.74;59.72
78615;BME280;67937;52.488;20.952;2023-04-24T00:47:54;99742.32;;;9.65;59.99
78615;BME280;67937;52.488;20.952;2023-04-24T00:50:22;99744.66;;;9.58;60.17
78615;BME280;67937;52.488;20.952;2023-04-24T00:52:52;99744.27;;;9.56;60.39
78615;BME280;67937;52.488;20.952;2023-04-24T00:55:20;99739.73;;;9.56;60.42
78615;BME280;67937;52.488;20.952;2023-04-24T00:57:48;99739.40;;;9.58;60.30
78615;BME280;67937;52.488;20.952;2023-04-24T01:00:17;99740.32;;;9.57;60.34
78615;BME280;67937;52.488;20.952;2023-04-24T01:02:45;99738.74;;;9.55;60.53
78615;BME280;67937;52.488;20.952;2023-04-24T01:05:15;99733.19;;;9.48;60.73
78615;BME280;67937;52.488;20.952;2023-04-24T01:07:45;99730.56;;;9.39;60.94
78615;BME280;67937;52.488;20.952;2023-04-24T01:10:16;99734.90;;;9.34;61.11
78615;BME280;67937;52.488;20.952;2023-04-24T01:12:44;99733.45;;;9.22;61.31
78615;BME280;67937;52.488;20.952;2023-04-24T01:15:13;99734.63;;;9.19;61.66
78615;BME280;67937;52.488;20.952;2023-04-24T01:17:41;99734.88;;;9.03;62.39
78615;BME280;67937;52.488;20.952;2023-04-24T01:20:10;99736.73;;;8.95;62.19
78615;BME280;67937;52.488;20.952;2023-04-24T01:22:38;99733.40;;;8.95;62.21
78615;BME280;67937;52.488;20.952;2023-04-24T01:25:07;99736.48;;;8.96;62.04
78615;BME280;67937;52.488;20.952;2023-04-24T01:27:35;99731.98;;;8.99;62.13
78615;BME280;67937;52.488;20.952;2023-04-24T01:30:04;99730.63;;;8.99;62.14
78615;BME280;67937;52.488;20.952;2023-04-24T01:32:33;99728.14;;;8.93;62.18
78615;BME280;67937;52.488;20.952;2023-04-24T01:35:03;99729.13;;;8.92;62.13
78615;BME280;67937;52.488;20.952;2023-04-24T01:37:31;99731.33;;;8.90;62.06
78615;BME280;67937;52.488;20.952;2023-04-24T01:39:59;99732.05;;;8.88;62.06
78615;BME280;67937;52.488;20.952;2023-04-24T01:42:28;99727.97;;;8.88;62.07
78615;BME280;67937;52.488;20.952;2023-04-24T01:44:56;99730.21;;;8.87;62.09
78615;BME280;67937;52.488;20.952;2023-04-24T01:47:25;99727.98;;;8.86;62.09
78615;BME280;67937;52.488;20.952;2023-04-24T01:49:53;99730.95;;;8.86;62.01
78615;BME280;67937;52.488;20.952;2023-04-24T01:52:21;99727.52;;;8.87;61.96
78615;BME280;67937;52.488;20.952;2023-04-24T01:54:49;99727.61;;;8.86;62.03
78615;BME280;67937;52.488;20.952;2023-04-24T01:57:17;99727.96;;;8.86;62.06
78615;BME280;67937;52.488;20.952;2023-04-24T01:59:46;99723.70;;;8.80;62.96
78615;BME280;67937;52.488;20.952;2023-04-24T02:02:14;99722.25;;;8.64;63.91
78615;BME280;67937;52.488;20.952;2023-04-24T02:04:42;99720.48;;;8.51;63.39
78615;BME280;67937;52.488;20.952;2023-04-24T02:07:10;99716.73;;;8.43;63.61
78615;BME280;67937;52.488;20.952;2023-04-24T02:09:38;99714.28;;;8.43;63.90
78615;BME280;67937;52.488;20.952;2023-04-24T02:12:06;99716.10;;;8.42;63.80
78615;BME280;67937;52.488;20.952;2023-04-24T02:14:35;99713.03;;;8.46;63.71
78615;BME280;67937;52.488;20.952;2023-04-24T02:17:03;99712.20;;;8.49;63.82
78615;BME280;67937;52.488;20.952;2023-04-24T02:19:31;99708.52;;;8.51;63.55
78615;BME280;67937;52.488;20.952;2023-04-24T02:21:59;99704.66;;;8.51;63.44
78615;BME280;67937;52.488;20.952;2023-04-24T02:24:27;99700.89;;;8.41;64.41
78615;BME280;67937;52.488;20.952;2023-04-24T02:26:55;99696.39;;;8.30;64.25
78615;BME280;67937;52.488;20.952;2023-04-24T02:29:24;99701.55;;;8.20;64.55
78615;BME280;67937;52.488;20.952;2023-04-24T02:31:52;99697.17;;;8.15;64.47
78615;BME280;67937;52.488;20.952;2023-04-24T02:34:20;99696.72;;;8.17;64.44
78615;BME280;67937;52.488;20.952;2023-04-24T02:36:49;99696.61;;;8.18;64.40
78615;BME280;67937;52.488;20.952;2023-04-24T02:39:17;99693.32;;;8.17;64.35
78615;BME280;67937;52.488;20.952;2023-04-24T02:41:45;99686.54;;;8.14;64.39
78615;BME280;67937;52.488;20.952;2023-04-24T02:44:14;99686.54;;;8.12;64.43
78615;BME280;67937;52.488;20.952;2023-04-24T02:46:42;99689.13;;;8.13;64.39
78615;BME280;67937;52.488;20.952;2023-04-24T02:49:10;99685.00;;;8.11;64.42
78615;BME280;67937;52.488;20.952;2023-04-24T02:51:38;99681.30;;;8.09;64.33
78615;BME280;67937;52.488;20.952;2023-04-24T02:54:08;99683.52;;;8.06;64.50
78615;BME280;67937;52.488;20.952;2023-04-24T02:56:37;99685.52;;;8.05;64.50
78615;BME280;67937;52.488;20.952;2023-04-24T02:59:05;99682.52;;;8.03;64.76
78615;BME280;67937;52.488;20.952;2023-04-24T03:01:33;99681.21;;;8.02;64.89
78615;BME280;67937;52.488;20.952;2023-04-24T03:04:02;99675.56;;;8.04;65.00
78615;BME280;67937;52.488;20.952;2023-04-24T03:06:30;99674.77;;;8.05;65.07
78615;BME280;67937;52.488;20.952;2023-04-24T03:08:59;99677.80;;;8.07;65.01
78615;BME280;67937;52.488;20.952;2023-04-24T03:11:27;99674.14;;;8.07;64.97
78615;BME280;67937;52.488;20.952;2023-04-24T03:13:55;99678.14;;;8.05;65.55
78615;BME280;67937;52.488;20.952;2023-04-24T03:16:23;99675.54;;;8.05;65.20
78615;BME280;67937;52.488;20.952;2023-04-24T03:18:51;99676.53;;;8.08;65.30
78615;BME280;67937;52.488;20.952;2023-04-24T03:21:20;99673.19;;;8.10;65.46
78615;BME280;67937;52.488;20.952;2023-04-24T03:23:48;99674.38;;;8.15;65.48
78615;BME280;67937;52.488;20.952;2023-04-24T03:26:16;99675.60;;;8.21;65.39
78615;BME280;67937;52.488;20.952;2023-04-24T03:28:44;99676.30;;;8.26;65.53
78615;BME280;67937;52.488;20.952;2023-04-24T03:31:12;99679.31;;;8.30;65.32
78615;BME280;67937;52.488;20.952;2023-04-24T03:33:42;99674.95;;;8.36;65.32
78615;BME280;67937;52.488;20.952;2023-04-24T03:36:10;99678.98;;;8.41;65.29
78615;BME280;67937;52.488;20.952;2023-04-24T03:38:38;99683.09;;;8.46;65.29
78615;BME280;67937;52.488;20.952;2023-04-24T03:41:06;99677.03;;;8.51;65.61
78615;BME280;67937;52.488;20.952;2023-04-24T03:43:34;99678.27;;;8.49;65.58
78615;BME280;67937;52.488;20.952;2023-04-24T03:46:02;99679.20;;;8.49;65.51
78615;BME280;67937;52.488;20.952;2023-04-24T03:48:30;99671.77;;;8.53;65.52
78615;BME280;67937;52.488;20.952;2023-04-24T03:50:58;99671.64;;;8.65;65.38
78615;BME280;67937;52.488;20.952;2023-04-24T03:53:26;99667.30;;;8.75;65.58
78615;BME280;67937;52.488;20.952;2023-04-24T03:55:54;99665.70;;;8.86;65.46
78615;BME280;67937;52.488;20.952;2023-04-24T03:58:22;99672.41;;;8.96;65.44
78615;BME280;67937;52.488;20.952;2023-04-24T04:00:50;99670.45;;;9.09;65.46
78615;BME280;67937;52.488;20.952;2023-04-24T04:03:18;99668.09;;;9.21;65.32
78615;BME280;67937;52.488;20.952;2023-04-24T04:05:47;99662.58;;;9.32;65.38
78615;BME280;67937;52.488;20.952;2023-04-24T04:08:15;99664.14;;;9.42;64.94
78615;BME280;67937;52.488;20.952;2023-04-24T04:10:43;99661.23;;;9.55;65.20
78615;BME280;67937;52.488;20.952;2023-04-24T04:13:11;99666.73;;;9.69;65.09
78615;BME280;67937;52.488;20.952;2023-04-24T04:15:39;99671.95;;;9.82;64.97
78615;BME280;67937;52.488;20.952;2023-04-24T04:18:07;99671.04;;;9.92;64.95
78615;BME280;67937;52.488;20.952;2023-04-24T04:20:35;99672.46;;;10.04;64.90
78615;BME280;67937;52.488;20.952;2023-04-24T04:23:03;99671.40;;;10.14;64.94
78615;BME280;67937;52.488;20.952;2023-04-24T04:25:31;99676.79;;;10.25;65.12
78615;BME280;67937;52.488;20.952;2023-04-24T04:27:59;99676.27;;;10.39;64.90
78615;BME280;67937;52.488;20.952;2023-04-24T04:30:28;99676.63;;;10.47;64.30
78615;BME280;67937;52.488;20.952;2023-04-24T04:32:59;99676.61;;;10.53;64.28
78615;BME280;67937;52.488;20.952;2023-04-24T04:35:27;99676.22;;;10.55;64.11
78615;BME280;67937;52.488;20.952;2023-04-24T04:37:55;99671.98;;;10.59;64.01
78615;BME280;67937;52.488;20.952;2023-04-24T04:40:25;99672.81;;;10.62;64.01
78615;BME280;67937;52.488;20.952;2023-04-24T04:42:54;99672.17;;;10.63;63.96
78615;BME280;67937;52.488;20.952;2023-04-24T04:45:22;99668.04;;;10.64;63.93
78615;BME280;67937;52.488;20.952;2023-04-24T04:47:51;99669.24;;;10.68;63.95
78615;BME280;67937;52.488;20.952;2023-04-24T04:50:19;99671.98;;;10.71;63.82
78615;BME280;67937;52.488;20.952;2023-04-24T04:52:47;99671.83;;;10.73;63.95
78615;BME280;67937;52.488;20.952;2023-04-24T04:55:15;99679.38;;;10.77;63.66
78615;BME280;67937;52.488;20.952;2023-04-24T04:57:43;99672.66;;;10.79;63.53
78615;BME280;67937;52.488;20.952;2023-04-24T05:00:12;99675.65;;;10.81;63.53
78615;BME280;67937;52.488;20.952;2023-04-24T05:02:40;99672.89;;;10.86;63.58
78615;BME280;67937;52.488;20.952;2023-04-24T05:05:09;99677.69;;;11.01;63.39
78615;BME280;67937;52.488;20.952;2023-04-24T05:07:37;99675.75;;;11.16;63.23
78615;BME280;67937;52.488;20.952;2023-04-24T05:10:05;99676.27;;;11.31;63.23
78615;BME280;67937;52.488;20.952;2023-04-24T05:12:33;99671.29;;;11.46;63.03
78615;BME280;67937;52.488;20.952;2023-04-24T05:15:02;99669.79;;;11.60;62.73
78615;BME280;67937;52.488;20.952;2023-04-24T05:17:30;99670.64;;;11.76;62.52
78615;BME280;67937;52.488;20.952;2023-04-24T05:19:58;99668.14;;;11.87;62.37
78615;BME280;67937;52.488;20.952;2023-04-24T05:22:27;99667.55;;;12.01;62.18
78615;BME280;67937;52.488;20.952;2023-04-24T05:24:55;99665.80;;;12.17;61.36
78615;BME280;67937;52.488;20.952;2023-04-24T05:27:24;99666.10;;;12.28;61.09
78615;BME280;67937;52.488;20.952;2023-04-24T05:29:52;99665.95;;;12.39;60.75
78615;BME280;67937;52.488;20.952;2023-04-24T05:32:20;99664.88;;;12.51;60.43
78615;BME280;67937;52.488;20.952;2023-04-24T05:34:48;99662.26;;;12.60;60.54
78615;BME280;67937;52.488;20.952;2023-04-24T05:37:16;99654.54;;;12.72;60.46
78615;BME280;67937;52.488;20.952;2023-04-24T05:39:44;99653.22;;;12.90;60.43
78615;BME280;67937;52.488;20.952;2023-04-24T05:42:12;99654.23;;;13.11;59.75
78615;BME280;67937;52.488;20.952;2023-04-24T05:44:40;99654.85;;;13.24;59.32
78615;BME280;67937;52.488;20.952;2023-04-24T05:47:08;99654.20;;;13.44;59.66
78615;BME280;67937;52.488;20.952;2023-04-24T05:49:37;99656.95;;;13.58;59.78
78615;BME280;67937;52.488;20.952;2023-04-24T05:52:05;99661.05;;;13.82;59.37
78615;BME280;67937;52.488;20.952;2023-04-24T05:54:35;99659.50;;;13.85;58.97
78615;BME280;67937;52.488;20.952;2023-04-24T05:57:03;99661.63;;;13.86;58.91
78615;BME280;67937;52.488;20.952;2023-04-24T05:59:37;99659.27;;;13.94;58.98
78615;BME280;67937;52.488;20.952;2023-04-24T06:02:05;99657.52;;;13.90;59.23
78615;BME280;67937;52.488;20.952;2023-04-24T06:04:33;99656.42;;;13.84;59.25
78615;BME280;67937;52.488;20.952;2023-04-24T06:07:01;99655.37;;;13.84;59.13
78615;BME280;67937;52.488;20.952;2023-04-24T06:09:30;99653.04;;;13.84;59.15
78615;BME280;67937;52.488;20.952;2023-04-24T06:11:58;99654.18;;;13.93;59.09
78615;BME280;67937;52.488;20.952;2023-04-24T06:14:26;99658.81;;;13.95;59.13
78615;BME280;67937;52.488;20.952;2023-04-24T06:16:54;99657.44;;;13.99;58.87
78615;BME280;67937;52.488;20.952;2023-04-24T06:19:22;99649.71;;;14.27;58.37
78615;BME280;67937;52.488;20.952;2023-04-24T06:21:50;99648.67;;;14.44;58.30
78615;BME280;67937;52.488;20.952;2023-04-24T06:24:18;99647.27;;;14.66;57.66
78615;BME280;67937;52.488;20.952;2023-04-24T06:26:46;99642.86;;;14.74;56.88
78615;BME280;67937;52.488;20.952;2023-04-24T06:29:14;99641.30;;;14.76;56.72
78615;BME280;67937;52.488;20.952;2023-04-24T06:31:42;99644.69;;;14.71;57.25
78615;BME280;67937;52.488;20.952;2023-04-24T06:34:11;99644.69;;;14.89;56.82
78615;BME280;67937;52.488;20.952;2023-04-24T06:36:39;99642.35;;;14.95;57.10
78615;BME280;67937;52.488;20.952;2023-04-24T06:39:07;99643.40;;;15.13;57.03
78615;BME280;67937;52.488;20.952;2023-04-24T06:41:35;99637.48;;;15.33;56.66
78615;BME280;67937;52.488;20.952;2023-04-24T06:44:03;99633.38;;;15.61;56.43
78615;BME280;67937;52.488;20.952;2023-04-24T06:46:31;99629.27;;;15.99;55.35
78615;BME280;67937;52.488;20.952;2023-04-24T06:49:00;99628.54;;;16.31;54.93
78615;BME280;67937;52.488;20.952;2023-04-24T06:51:28;99629.34;;;16.63;54.72
78615;BME280;67937;52.488;20.952;2023-04-24T06:53:57;99633.94;;;16.95;52.97
78615;BME280;67937;52.488;20.952;2023-04-24T06:56:26;99632.54;;;16.98;52.78
78615;BME280;67937;52.488;20.952;2023-04-24T06:58:55;99632.96;;;17.05;51.70
78615;BME280;67937;52.488;20.952;2023-04-24T07:01:23;99632.27;;;17.12;51.40
78615;BME280;67937;52.488;20.952;2023-04-24T07:03:51;99631.92;;;17.13;52.02
78615;BME280;67937;52.488;20.952;2023-04-24T07:06:19;99632.44;;;17.15;52.24
78615;BME280;67937;52.488;20.952;2023-04-24T07:08:49;99628.02;;;17.24;51.99
78615;BME280;67937;52.488;20.952;2023-04-24T07:11:17;99630.11;;;17.17;52.06
78615;BME280;67937;52.488;20.952;2023-04-24T07:13:45;99628.30;;;17.23;51.84
78615;BME280;67937;52.488;20.952;2023-04-24T07:16:13;99631.30;;;17.28;52.41
78615;BME280;67937;52.488;20.952;2023-04-24T07:18:41;99626.95;;;17.61;50.89
78615;BME280;67937;52.488;20.952;2023-04-24T07:21:09;99627.77;;;17.86;51.11
78615;BME280;67937;52.488;20.952;2023-04-24T07:23:37;99622.60;;;18.07;49.48
78615;BME280;67937;52.488;20.952;2023-04-24T07:26:07;99621.52;;;18.10;50.33
78615;BME280;67937;52.488;20.952;2023-04-24T07:28:36;99617.86;;;18.27;49.92
78615;BME280;67937;52.488;20.952;2023-04-24T07:31:04;99617.16;;;18.53;49.63
78615;BME280;67937;52.488;20.952;2023-04-24T07:33:32;99615.73;;;18.89;48.45
78615;BME280;67937;52.488;20.952;2023-04-24T07:36:00;99619.80;;;19.06;48.49
78615;BME280;67937;52.488;20.952;2023-04-24T07:38:31;99611.48;;;19.21;47.08
78615;BME280;67937;52.488;20.952;2023-04-24T07:40:59;99611.25;;;19.37;48.09
78615;BME280;67937;52.488;20.952;2023-04-24T07:43:28;99605.31;;;19.60;47.14
78615;BME280;67937;52.488;20.952;2023-04-24T07:45:56;99601.19;;;19.80;47.09
78615;BME280;67937;52.488;20.952;2023-04-24T07:48:24;99603.92;;;19.97;46.89
78615;BME280;67937;52.488;20.952;2023-04-24T07:50:53;99599.15;;;19.92;47.61
78615;BME280;67937;52.488;20.952;2023-04-24T07:53:21;99597.86;;;19.82;47.03
78615;BME280;67937;52.488;20.952;2023-04-24T07:55:49;99597.62;;;19.68;48.01
78615;BME280;67937;52.488;20.952;2023-04-24T07:58:18;99601.34;;;19.43;48.62
78615;BME280;67937;52.488;20.952;2023-04-24T08:00:46;99595.20;;;19.51;47.08
78615;BME280;67937;52.488;20.952;2023-04-24T08:03:14;99593.66;;;19.39;47.29
78615;BME280;67937;52.488;20.952;2023-04-24T08:05:45;99594.66;;;19.27;47.49
78615;BME280;67937;52.488;20.952;2023-04-24T08:08:13;99590.55;;;19.21;47.54
78615;BME280;67937;52.488;20.952;2023-04-24T08:10:41;99596.37;;;19.19;47.05
78615;BME280;67937;52.488;20.952;2023-04-24T08:13:10;99599.05;;;19.19;47.57
78615;BME280;67937;52.488;20.952;2023-04-24T08:15:39;99598.44;;;19.60;46.84
78615;BME280;67937;52.488;20.952;2023-04-24T08:18:07;99597.11;;;19.99;46.51
78615;BME280;67937;52.488;20.952;2023-04-24T08:20:35;99595.51;;;20.18;46.25
78615;BME280;67937;52.488;20.952;2023-04-24T08:23:03;99600.09;;;20.07;46.01
78615;BME280;67937;52.488;20.952;2023-04-24T08:25:32;99601.94;;;19.87;46.41
78615;BME280;67937;52.488;20.952;2023-04-24T08:28:02;99597.69;;;19.89;45.90
78615;BME280;67937;52.488;20.952;2023-04-24T08:30:31;99599.56;;;19.66;46.46
78615;BME280;67937;52.488;20.952;2023-04-24T08:32:59;99592.55;;;19.64;46.56
78615;BME280;67937;52.488;20.952;2023-04-24T08:35:28;99596.65;;;19.56;46.54
78615;BME280;67937;52.488;20.952;2023-04-24T08:37:56;99596.92;;;19.50;47.03
78615;BME280;67937;52.488;20.952;2023-04-24T08:40:27;99599.66;;;19.51;47.41
78615;BME280;67937;52.488;20.952;2023-04-24T08:42:57;99604.73;;;19.56;47.36
78615;BME280;67937;52.488;20.952;2023-04-24T08:45:27;99606.46;;;19.59;47.62
78615;BME280;67937;52.488;20.952;2023-04-24T08:47:55;99607.70;;;19.78;47.04
78615;BME280;67937;52.488;20.952;2023-04-24T08:50:23;99608.95;;;19.74;47.71
78615;BME280;67937;52.488;20.952;2023-04-24T08:52:52;99609.52;;;19.79;46.91
78615;BME280;67937;52.488;20.952;2023-04-24T08:55:20;99609.45;;;19.69;47.19
78615;BME280;67937;52.488;20.952;2023-04-24T08:57:50;99610.10;;;19.72;47.05
78615;BME280;67937;52.488;20.952;2023-04-24T09:00:20;99609.13;;;19.58;47.67
78615;BME280;67937;52.488;20.952;2023-04-24T09:02:49;99608.16;;;19.51;47.81
78615;BME280;67937;52.488;20.952;2023-04-24T09:05:18;99607.79;;;19.54;47.31
78615;BME280;67937;52.488;20.952;2023-04-24T09:07:55;99606.53;;;19.75;47.49
78615;BME280;67937;52.488;20.952;2023-04-24T09:10:25;99607.72;;;20.11;47.10
78615;BME280;67937;52.488;20.952;2023-04-24T09:12:56;99604.91;;;20.55;46.06
78615;BME280;67937;52.488;20.952;2023-04-24T09:15:24;99599.42;;;20.88;44.48
78615;BME280;67937;52.488;20.952;2023-04-24T09:17:53;99601.59;;;21.07;44.64
78615;BME280;67937;52.488;20.952;2023-04-24T09:20:21;99597.69;;;21.01;44.90
78615;BME280;67937;52.488;20.952;2023-04-24T09:22:53;99594.17;;;20.88;44.99
78615;BME280;67937;52.488;20.952;2023-04-24T09:25:21;99593.02;;;20.74;45.13
78615;BME280;67937;52.488;20.952;2023-04-24T09:27:53;99587.87;;;20.65;45.24
78615;BME280;67937;52.488;20.952;2023-04-24T09:30:21;99582.35;;;20.57;45.55
78615;BME280;67937;52.488;20.952;2023-04-24T09:33:09;99582.25;;;20.67;45.47
78615;BME280;67937;52.488;20.952;2023-04-24T09:35:49;99581.30;;;20.86;45.26
78615;BME280;67937;52.488;20.952;2023-04-24T09:38:19;99577.30;;;21.05;43.70
78615;BME280;67937;52.488;20.952;2023-04-24T09:41:02;99573.06;;;20.83;44.86
78615;BME280;67937;52.488;20.952;2023-04-24T09:43:32;99570.21;;;20.70;45.19
78615;BME280;67937;52.488;20.952;2023-04-24T09:46:06;99570.17;;;20.72;44.83
78615;BME280;67937;52.488;20.952;2023-04-24T09:48:37;99561.16;;;20.54;45.33
78615;BME280;67937;52.488;20.952;2023-04-24T09:51:06;99562.86;;;20.59;45.73
78615;BME280;67937;52.488;20.952;2023-04-24T09:53:37;99567.03;;;20.69;45.73
78615;BME280;67937;52.488;20.952;2023-04-24T09:56:10;99565.20;;;20.90;46.06
78615;BME280;67937;52.488;20.952;2023-04-24T09:58:39;99563.64;;;21.09;44.28
78615;BME280;67937;52.488;20.952;2023-04-24T10:01:07;99560.48;;;21.04;45.07
78615;BME280;67937;52.488;20.952;2023-04-24T10:03:35;99555.23;;;21.19;45.07
78615;BME280;67937;52.488;20.952;2023-04-24T10:06:04;99554.92;;;21.50;44.78
78615;BME280;67937;52.488;20.952;2023-04-24T10:08:36;99551.23;;;21.75;44.42
78615;BME280;67937;52.488;20.952;2023-04-24T10:11:04;99550.93;;;22.01;43.51
78615;BME280;67937;52.488;20.952;2023-04-24T10:13:32;99549.55;;;22.22;42.17
78615;BME280;67937;52.488;20.952;2023-04-24T10:16:02;99547.04;;;22.17;41.85
78615;BME280;67937;52.488;20.952;2023-04-24T10:18:32;99544.88;;;22.19;41.46
78615;BME280;67937;52.488;20.952;2023-04-24T10:21:00;99538.42;;;22.25;40.02
78615;BME280;67937;52.488;20.952;2023-04-24T10:23:29;99539.41;;;22.27;39.82
78615;BME280;67937;52.488;20.952;2023-04-24T10:26:00;99537.09;;;22.27;40.53
78615;BME280;67937;52.488;20.952;2023-04-24T10:28:30;99535.21;;;22.18;39.53
78615;BME280;67937;52.488;20.952;2023-04-24T10:30:58;99531.98;;;21.92;39.97
78615;BME280;67937;52.488;20.952;2023-04-24T10:33:27;99529.98;;;21.72;40.46
78615;BME280;67937;52.488;20.952;2023-04-24T10:35:57;99523.90;;;21.66;41.17
78615;BME280;67937;52.488;20.952;2023-04-24T10:38:27;99519.60;;;21.83;41.31
78615;BME280;67937;52.488;20.952;2023-04-24T10:41:06;99514.04;;;22.17;40.74
78615;BME280;67937;52.488;20.952;2023-04-24T10:43:35;99514.91;;;22.50;39.27
78615;BME280;67937;52.488;20.952;2023-04-24T10:46:04;99514.11;;;22.66;37.68
78615;BME280;67937;52.488;20.952;2023-04-24T10:48:33;99512.06;;;22.68;37.19
78615;BME280;67937;52.488;20.952;2023-04-24T10:51:01;99507.41;;;22.68;37.84
78615;BME280;67937;52.488;20.952;2023-04-24T10:53:30;99506.89;;;22.95;37.78
78615;BME280;67937;52.488;20.952;2023-04-24T10:56:00;99498.92;;;23.15;36.10
78615;BME280;67937;52.488;20.952;2023-04-24T10:58:41;99495.15;;;23.29;36.52
78615;BME280;67937;52.488;20.952;2023-04-24T11:01:31;99485.55;;;23.54;35.61
78615;BME280;67937;52.488;20.952;2023-04-24T11:04:01;99483.91;;;23.71;34.91
78615;BME280;67937;52.488;20.952;2023-04-24T11:06:32;99481.77;;;23.78;33.68
78615;BME280;67937;52.488;20.952;2023-04-24T11:09:08;99482.29;;;23.77;33.65
78615;BME280;67937;52.488;20.952;2023-04-24T11:11:44;99480.97;;;23.83;33.47
78615;BME280;67937;52.488;20.952;2023-04-24T11:14:16;99481.93;;;23.58;33.46
78615;BME280;67937;52.488;20.952;2023-04-24T11:16:51;99485.24;;;23.26;34.49
78615;BME280;67937;52.488;20.952;2023-04-24T11:19:23;99476.02;;;23.03;34.98
78615;BME280;67937;52.488;20.952;2023-04-24T11:21:59;99483.31;;;22.88;35.51
78615;BME280;67937;52.488;20.952;2023-04-24T11:27:09;99483.98;;;22.68;36.56
78615;BME280;67937;52.488;20.952;2023-04-24T11:29:47;99490.27;;;22.70;35.79
78615;BME280;67937;52.488;20.952;2023-04-24T11:32:33;99492.66;;;22.43;35.53
78615;BME280;67937;52.488;20.952;2023-04-24T11:37:36;99486.33;;;22.11;34.92
78615;BME280;67937;52.488;20.952;2023-04-24T11:40:07;99490.30;;;21.94;35.68
78615;BME280;67937;52.488;20.952;2023-04-24T11:42:36;99493.95;;;22.03;34.54
78615;BME280;67937;52.488;20.952;2023-04-24T11:45:10;99495.70;;;21.91;34.77
78615;BME280;67937;52.488;20.952;2023-04-24T11:47:39;99488.38;;;21.78;35.34
78615;BME280;67937;52.488;20.952;2023-04-24T11:50:13;99487.84;;;21.98;34.70
78615;BME280;67937;52.488;20.952;2023-04-24T11:52:43;99488.17;;;21.73;35.45
78615;BME280;67937;52.488;20.952;2023-04-24T11:57:46;99487.98;;;21.25;36.50
78615;BME280;67937;52.488;20.952;2023-04-24T12:02:45;99477.27;;;20.80;37.11
78615;BME280;67937;52.488;20.952;2023-04-24T12:05:24;99474.56;;;20.73;37.47
78615;BME280;67937;52.488;20.952;2023-04-24T12:07:52;99474.40;;;20.68;37.58
78615;BME280;67937;52.488;20.952;2023-04-24T12:10:25;99468.35;;;20.63;37.67
78615;BME280;67937;52.488;20.952;2023-04-24T12:12:53;99464.73;;;20.63;37.11
78615;BME280;67937;52.488;20.952;2023-04-24T12:15:23;99457.96;;;20.59;37.47
78615;BME280;67937;52.488;20.952;2023-04-24T12:17:52;99460.41;;;20.66;37.67
78615;BME280;67937;52.488;20.952;2023-04-24T12:20:26;99455.38;;;20.99;37.30
78615;BME280;67937;52.488;20.952;2023-04-24T12:22:56;99455.89;;;21.57;37.41
78615;BME280;67937;52.488;20.952;2023-04-24T12:25:29;99452.63;;;22.00;36.78
78615;BME280;67937;52.488;20.952;2023-04-24T12:30:35;99446.77;;;22.01;36.09
78615;BME280;67937;52.488;20.952;2023-04-24T12:33:06;99443.11;;;21.88;35.30
78615;BME280;67937;52.488;20.952;2023-04-24T12:35:34;99438.16;;;21.86;35.37
78615;BME280;67937;52.488;20.952;2023-04-24T12:38:09;99435.50;;;21.70;35.11
78615;BME280;67937;52.488;20.952;2023-04-24T12:40:39;99435.69;;;21.67;35.41
78615;BME280;67937;52.488;20.952;2023-04-24T12:43:18;99435.48;;;21.64;34.12
78615;BME280;67937;52.488;20.952;2023-04-24T12:45:49;99427.30;;;21.71;34.00
78615;BME280;67937;52.488;20.952;2023-04-24T12:48:17;99427.52;;;21.99;33.49
78615;BME280;67937;52.488;20.952;2023-04-24T12:50:46;99420.13;;;22.22;33.96
78615;BME280;67937;52.488;20.952;2023-04-24T12:53:41;99413.42;;;22.58;33.20
78615;BME280;67937;52.488;20.952;2023-04-24T12:56:54;99404.24;;;22.86;34.62
78615;BME280;67937;52.488;20.952;2023-04-24T12:59:22;99406.76;;;23.15;33.37
78615;BME280;67937;52.488;20.952;2023-04-24T13:01:50;99401.52;;;23.27;32.93
78615;BME280;67937;52.488;20.952;2023-04-24T13:04:18;99401.88;;;23.32;33.42
78615;BME280;67937;52.488;20.952;2023-04-24T13:06:46;99405.02;;;23.35;33.67
78615;BME280;67937;52.488;20.952;2023-04-24T13:09:14;99401.80;;;23.44;34.22
78615;BME280;67937;52.488;20.952;2023-04-24T13:11:42;99407.46;;;23.51;34.05
78615;BME280;67937;52.488;20.952;2023-04-24T13:14:10;99405.53;;;23.52;34.69
78615;BME280;67937;52.488;20.952;2023-04-24T13:16:38;99408.50;;;23.65;35.20